sensor_id;sensor_type;location;lat;lon;timestamp;temperature;humidity
64987;DHT22;67903;52.108;9.358;2024-01-11T00:00:07;-7.40;77.80
64987;DHT22;67903;52.108;9.358;2024-01-11T00:02:52;-7.60;77.60
64987;DHT22;67903;52.108;9.358;2024-01-11T00:05:38;-7.60;77.80
64987;DHT22;67903;52.108;9.358;2024-01-11T00:08:24;-7.60;78.00
64987;DHT22;67903;52.108;9.358;2024-01-11T00:11:10;-7.60;78.40
64987;DHT22;67903;52.108;9.358;2024-01-11T00:13:56;-7.60;78.50
64987;DHT22;67903;52.108;9.358;2024-01-11T00:16:42;-7.60;78.40
64987;DHT22;67903;52.108;9.358;2024-01-11T00:19:27;-7.60;78.70
64987;DHT22;67903;52.108;9.358;2024-01-11T00:22:13;-7.60;78.10
64987;DHT22;67903;52.108;9.358;2024-01-11T00:24:59;-7.60;78.20
64987;DHT22;67903;52.108;9.358;2024-01-11T00:27:44;-7.70;78.00
64987;DHT22;67903;52.108;9.358;2024-01-11T00:30:30;-7.70;78.50
64987;DHT22;67903;52.108;9.358;2024-01-11T00:33:15;-7.60;78.00
64987;DHT22;67903;52.108;9.358;2024-01-11T00:36:01;-7.50;77.90
64987;DHT22;67903;52.108;9.358;2024-01-11T00:38:46;-7.50;77.80
64987;DHT22;67903;52.108;9.358;2024-01-11T00:41:32;-7.50;77.80
64987;DHT22;67903;52.108;9.358;2024-01-11T00:44:17;-7.40;77.50
64987;DHT22;67903;52.108;9.358;2024-01-11T00:47:03;-7.40;77.50
64987;DHT22;67903;52.108;9.358;2024-01-11T00:49:49;-7.40;77.50
64987;DHT22;67903;52.108;9.358;2024-01-11T00:52:34;-7.40;77.50
64987;DHT22;67903;52.108;9.358;2024-01-11T00:55:20;-7.40;77.40
64987;DHT22;67903;52.108;9.358;2024-01-11T00:58:05;-7.40;77.30
64987;DHT22;67903;52.108;9.358;2024-01-11T01:00:51;-7.40;77.50
64987;DHT22;67903;52.108;9.358;2024-01-11T01:03:38;-7.30;77.30
64987;DHT22;67903;52.108;9.358;2024-01-11T01:06:24;-7.30;77.00
64987;DHT22;67903;52.108;9.358;2024-01-11T01:09:10;-7.30;77.10
64987;DHT22;67903;52.108;9.358;2024-01-11T01:11:55;-7.30;77.20
64987;DHT22;67903;52.108;9.358;2024-01-11T01:14:41;-7.50;78.10
64987;DHT22;67903;52.108;9.358;2024-01-11T01:17:26;-7.60;78.60
64987;DHT22;67903;52.108;9.358;2024-01-11T01:20:12;-7.70;78.70
64987;DHT22;67903;52.108;9.358;2024-01-11T01:22:57;-7.60;78.70
64987;DHT22;67903;52.108;9.358;2024-01-11T01:25:43;-7.70;78.30
64987;DHT22;67903;52.108;9.358;2024-01-11T01:28:30;-7.60;78.40
64987;DHT22;67903;52.108;9.358;2024-01-11T01:31:15;-7.70;78.00
64987;DHT22;67903;52.108;9.358;2024-01-11T01:34:01;-7.70;78.30
64987;DHT22;67903;52.108;9.358;2024-01-11T01:36:46;-7.80;78.50
64987;DHT22;67903;52.108;9.358;2024-01-11T01:39:32;-7.80;78.70
64987;DHT22;67903;52.108;9.358;2024-01-11T01:42:17;-7.80;79.00
64987;DHT22;67903;52.108;9.358;2024-01-11T01:45:03;-7.70;79.00
64987;DHT22;67903;52.108;9.358;2024-01-11T01:47:49;-7.70;78.90
64987;DHT22;67903;52.108;9.358;2024-01-11T01:50:35;-7.60;79.00
64987;DHT22;67903;52.108;9.358;2024-01-11T01:53:22;-7.60;78.70
64987;DHT22;67903;52.108;9.358;2024-01-11T01:56:08;-7.60;78.50
64987;DHT22;67903;52.108;9.358;2024-01-11T01:58:55;-7.60;78.70
64987;DHT22;67903;52.108;9.358;2024-01-11T02:01:41;-7.60;79.30
64987;DHT22;67903;52.108;9.358;2024-01-11T02:04:26;-7.60;79.60
64987;DHT22;67903;52.108;9.358;2024-01-11T02:07:13;-7.60;79.80
64987;DHT22;67903;52.108;9.358;2024-01-11T02:09:59;-7.60;79.70
64987;DHT22;67903;52.108;9.358;2024-01-11T02:12:44;-7.60;79.50
64987;DHT22;67903;52.108;9.358;2024-01-11T02:15:30;-7.60;78.80
64987;DHT22;67903;52.108;9.358;2024-01-11T02:18:16;-7.70;78.30
64987;DHT22;67903;52.108;9.358;2024-01-11T02:21:06;-7.70;78.60
64987;DHT22;67903;52.108;9.358;2024-01-11T02:24:04;-7.80;78.60
64987;DHT22;67903;52.108;9.358;2024-01-11T02:27:02;-7.90;78.80
64987;DHT22;67903;52.108;9.358;2024-01-11T02:29:48;-7.90;78.60
64987;DHT22;67903;52.108;9.358;2024-01-11T02:32:33;-7.90;78.40
64987;DHT22;67903;52.108;9.358;2024-01-11T02:35:19;-8.10;78.80
64987;DHT22;67903;52.108;9.358;2024-01-11T02:38:05;-8.00;79.20
64987;DHT22;67903;52.108;9.358;2024-01-11T02:40:51;-7.90;79.00
64987;DHT22;67903;52.108;9.358;2024-01-11T02:43:36;-7.90;78.80
64987;DHT22;67903;52.108;9.358;2024-01-11T02:46:22;-7.90;78.70
64987;DHT22;67903;52.108;9.358;2024-01-11T02:49:07;-7.90;78.90
64987;DHT22;67903;52.108;9.358;2024-01-11T02:51:53;-8.00;79.00
64987;DHT22;67903;52.108;9.358;2024-01-11T02:54:38;-7.90;79.20
64987;DHT22;67903;52.108;9.358;2024-01-11T02:57:24;-7.90;79.20
64987;DHT22;67903;52.108;9.358;2024-01-11T03:00:10;-7.90;79.00
64987;DHT22;67903;52.108;9.358;2024-01-11T03:02:55;-7.90;79.10
64987;DHT22;67903;52.108;9.358;2024-01-11T03:05:41;-7.80;78.90
64987;DHT22;67903;52.108;9.358;2024-01-11T03:08:26;-7.80;79.10
64987;DHT22;67903;52.108;9.358;2024-01-11T03:11:12;-7.80;79.20
64987;DHT22;67903;52.108;9.358;2024-01-11T03:13:57;-7.70;79.70
64987;DHT22;67903;52.108;9.358;2024-01-11T03:16:43;-7.80;79.80
64987;DHT22;67903;52.108;9.358;2024-01-11T03:19:28;-7.80;79.70
64987;DHT22;67903;52.108;9.358;2024-01-11T03:22:14;-7.90;79.60
64987;DHT22;67903;52.108;9.358;2024-01-11T03:24:59;-7.90;79.60
64987;DHT22;67903;52.108;9.358;2024-01-11T03:27:45;-7.90;79.50
64987;DHT22;67903;52.108;9.358;2024-01-11T03:30:31;-7.90;79.30
64987;DHT22;67903;52.108;9.358;2024-01-11T03:33:17;-7.90;79.40
64987;DHT22;67903;52.108;9.358;2024-01-11T03:36:09;-7.90;79.40
64987;DHT22;67903;52.108;9.358;2024-01-11T03:38:55;-7.90;79.00
64987;DHT22;67903;52.108;9.358;2024-01-11T03:41:47;-8.10;79.10
64987;DHT22;67903;52.108;9.358;2024-01-11T03:44:32;-8.00;79.30
64987;DHT22;67903;52.108;9.358;2024-01-11T03:47:18;-8.00;79.40
64987;DHT22;67903;52.108;9.358;2024-01-11T03:50:04;-8.00;79.20
64987;DHT22;67903;52.108;9.358;2024-01-11T03:52:50;-7.90;79.40
64987;DHT22;67903;52.108;9.358;2024-01-11T03:55:35;-7.90;79.30
64987;DHT22;67903;52.108;9.358;2024-01-11T03:58:21;-8.00;79.70
64987;DHT22;67903;52.108;9.358;2024-01-11T04:01:07;-8.00;79.80
64987;DHT22;67903;52.108;9.358;2024-01-11T04:03:55;-8.00;80.00
64987;DHT22;67903;52.108;9.358;2024-01-11T04:06:41;-8.10;80.10
64987;DHT22;67903;52.108;9.358;2024-01-11T04:09:26;-8.00;80.00
64987;DHT22;67903;52.108;9.358;2024-01-11T04:12:12;-8.10;80.00
64987;DHT22;67903;52.108;9.358;2024-01-11T04:14:57;-8.10;80.30
64987;DHT22;67903;52.108;9.358;2024-01-11T04:17:42;-8.10;80.20
64987;DHT22;67903;52.108;9.358;2024-01-11T04:20:28;-8.10;80.10
64987;DHT22;67903;52.108;9.358;2024-01-11T04:23:14;-8.10;80.30
64987;DHT22;67903;52.108;9.358;2024-01-11T04:25:59;-8.10;80.50
64987;DHT22;67903;52.108;9.358;2024-01-11T04:28:45;-8.10;79.70
64987;DHT22;67903;52.108;9.358;2024-01-11T04:31:34;-8.20;80.00
64987;DHT22;67903;52.108;9.358;2024-01-11T04:34:19;-8.10;80.40
64987;DHT22;67903;52.108;9.358;2024-01-11T04:37:06;-8.10;80.20
64987;DHT22;67903;52.108;9.358;2024-01-11T04:39:52;-8.20;80.30
64987;DHT22;67903;52.108;9.358;2024-01-11T04:42:37;-8.10;80.00
64987;DHT22;67903;52.108;9.358;2024-01-11T04:45:23;-8.20;80.10
64987;DHT22;67903;52.108;9.358;2024-01-11T04:48:08;-8.20;80.20
64987;DHT22;67903;52.108;9.358;2024-01-11T04:50:54;-8.20;80.20
64987;DHT22;67903;52.108;9.358;2024-01-11T04:53:40;-8.10;80.20
64987;DHT22;67903;52.108;9.358;2024-01-11T04:56:26;-8.10;80.50
64987;DHT22;67903;52.108;9.358;2024-01-11T04:59:12;-8.10;80.30
64987;DHT22;67903;52.108;9.358;2024-01-11T05:01:57;-7.90;80.20
64987;DHT22;67903;52.108;9.358;2024-01-11T05:04:43;-8.00;80.00
64987;DHT22;67903;52.108;9.358;2024-01-11T05:07:28;-8.10;80.10
64987;DHT22;67903;52.108;9.358;2024-01-11T05:10:14;-8.10;80.20
64987;DHT22;67903;52.108;9.358;2024-01-11T05:12:59;-8.10;80.30
64987;DHT22;67903;52.108;9.358;2024-01-11T05:15:45;-8.10;80.40
64987;DHT22;67903;52.108;9.358;2024-01-11T05:18:31;-8.20;80.30
64987;DHT22;67903;52.108;9.358;2024-01-11T05:21:20;-8.20;80.50
64987;DHT22;67903;52.108;9.358;2024-01-11T05:24:05;-8.20;80.40
64987;DHT22;67903;52.108;9.358;2024-01-11T05:26:55;-8.20;80.70
64987;DHT22;67903;52.108;9.358;2024-01-11T05:29:40;-8.20;80.70
64987;DHT22;67903;52.108;9.358;2024-01-11T05:32:26;-8.20;81.00
64987;DHT22;67903;52.108;9.358;2024-01-11T05:35:11;-8.10;80.90
64987;DHT22;67903;52.108;9.358;2024-01-11T05:37:58;-8.10;81.20
64987;DHT22;67903;52.108;9.358;2024-01-11T05:40:43;-8.10;81.30
64987;DHT22;67903;52.108;9.358;2024-01-11T05:43:29;-8.10;81.50
64987;DHT22;67903;52.108;9.358;2024-01-11T05:46:14;-8.00;81.50
64987;DHT22;67903;52.108;9.358;2024-01-11T05:49:00;-8.00;81.50
64987;DHT22;67903;52.108;9.358;2024-01-11T05:51:45;-7.90;81.50
64987;DHT22;67903;52.108;9.358;2024-01-11T05:54:30;-8.00;81.50
64987;DHT22;67903;52.108;9.358;2024-01-11T05:57:16;-8.10;81.90
64987;DHT22;67903;52.108;9.358;2024-01-11T06:00:02;-7.90;82.00
64987;DHT22;67903;52.108;9.358;2024-01-11T06:02:50;-7.90;81.70
64987;DHT22;67903;52.108;9.358;2024-01-11T06:05:36;-7.90;81.70
64987;DHT22;67903;52.108;9.358;2024-01-11T06:08:21;-7.90;81.70
64987;DHT22;67903;52.108;9.358;2024-01-11T06:11:07;-7.90;81.60
64987;DHT22;67903;52.108;9.358;2024-01-11T06:13:53;-8.00;82.00
64987;DHT22;67903;52.108;9.358;2024-01-11T06:16:40;-7.90;82.40
64987;DHT22;67903;52.108;9.358;2024-01-11T06:19:26;-7.90;82.00
64987;DHT22;67903;52.108;9.358;2024-01-11T06:22:11;-7.90;81.80
64987;DHT22;67903;52.108;9.358;2024-01-11T06:24:57;-7.80;81.80
64987;DHT22;67903;52.108;9.358;2024-01-11T06:27:44;-7.90;81.40
64987;DHT22;67903;52.108;9.358;2024-01-11T06:30:29;-8.00;81.40
64987;DHT22;67903;52.108;9.358;2024-01-11T06:33:15;-8.00;81.20
64987;DHT22;67903;52.108;9.358;2024-01-11T06:36:01;-8.00;81.20
64987;DHT22;67903;52.108;9.358;2024-01-11T06:38:47;-8.10;81.40
64987;DHT22;67903;52.108;9.358;2024-01-11T06:41:32;-8.10;81.30
64987;DHT22;67903;52.108;9.358;2024-01-11T06:44:18;-8.00;81.50
64987;DHT22;67903;52.108;9.358;2024-01-11T06:47:03;-8.00;81.40
64987;DHT22;67903;52.108;9.358;2024-01-11T06:49:51;-8.10;81.30
64987;DHT22;67903;52.108;9.358;2024-01-11T06:52:36;-8.00;81.50
64987;DHT22;67903;52.108;9.358;2024-01-11T06:55:22;-8.10;81.20
64987;DHT22;67903;52.108;9.358;2024-01-11T06:58:08;-8.10;81.50
64987;DHT22;67903;52.108;9.358;2024-01-11T07:00:54;-8.10;81.60
64987;DHT22;67903;52.108;9.358;2024-01-11T07:03:40;-8.10;81.70
64987;DHT22;67903;52.108;9.358;2024-01-11T07:06:25;-8.00;81.50
64987;DHT22;67903;52.108;9.358;2024-01-11T07:09:10;-8.10;81.50
64987;DHT22;67903;52.108;9.358;2024-01-11T07:11:56;-8.10;81.30
64987;DHT22;67903;52.108;9.358;2024-01-11T07:14:42;-8.10;81.60
64987;DHT22;67903;52.108;9.358;2024-01-11T07:17:28;-8.10;81.50
64987;DHT22;67903;52.108;9.358;2024-01-11T07:20:13;-8.10;81.60
64987;DHT22;67903;52.108;9.358;2024-01-11T07:23:01;-7.90;81.70
64987;DHT22;67903;52.108;9.358;2024-01-11T07:25:47;-7.90;81.20
64987;DHT22;67903;52.108;9.358;2024-01-11T07:28:33;-8.10;81.60
64987;DHT22;67903;52.108;9.358;2024-01-11T07:31:18;-8.10;81.80
64987;DHT22;67903;52.108;9.358;2024-01-11T07:34:04;-8.10;82.20
64987;DHT22;67903;52.108;9.358;2024-01-11T07:36:51;-8.00;82.30
64987;DHT22;67903;52.108;9.358;2024-01-11T07:39:37;-8.10;82.00
64987;DHT22;67903;52.108;9.358;2024-01-11T07:42:22;-8.00;82.30
64987;DHT22;67903;52.108;9.358;2024-01-11T07:45:09;-7.90;82.50
64987;DHT22;67903;52.108;9.358;2024-01-11T07:47:57;-7.90;82.30
64987;DHT22;67903;52.108;9.358;2024-01-11T07:50:42;-8.00;82.50
64987;DHT22;67903;52.108;9.358;2024-01-11T07:53:28;-7.90;82.40
64987;DHT22;67903;52.108;9.358;2024-01-11T07:56:13;-7.90;82.40
64987;DHT22;67903;52.108;9.358;2024-01-11T07:58:59;-8.00;82.60
64987;DHT22;67903;52.108;9.358;2024-01-11T08:01:44;-7.90;82.50
64987;DHT22;67903;52.108;9.358;2024-01-11T08:04:30;-8.00;82.30
64987;DHT22;67903;52.108;9.358;2024-01-11T08:07:16;-8.00;82.50
64987;DHT22;67903;52.108;9.358;2024-01-11T08:10:01;-7.90;82.10
64987;DHT22;67903;52.108;9.358;2024-01-11T08:12:49;-7.90;82.00
64987;DHT22;67903;52.108;9.358;2024-01-11T08:15:35;-7.90;81.60
64987;DHT22;67903;52.108;9.358;2024-01-11T08:18:20;-7.70;81.70
64987;DHT22;67903;52.108;9.358;2024-01-11T08:21:06;-7.70;81.40
64987;DHT22;67903;52.108;9.358;2024-01-11T08:23:55;-7.70;80.70
64987;DHT22;67903;52.108;9.358;2024-01-11T08:26:46;-7.70;80.70
64987;DHT22;67903;52.108;9.358;2024-01-11T08:29:31;-7.70;80.50
64987;DHT22;67903;52.108;9.358;2024-01-11T08:32:17;-7.70;80.50
64987;DHT22;67903;52.108;9.358;2024-01-11T08:35:15;-7.80;81.00
64987;DHT22;67903;52.108;9.358;2024-01-11T08:38:01;-7.70;81.30
64987;DHT22;67903;52.108;9.358;2024-01-11T08:40:48;-7.70;81.50
64987;DHT22;67903;52.108;9.358;2024-01-11T08:43:34;-7.70;81.70
64987;DHT22;67903;52.108;9.358;2024-01-11T08:46:26;-7.60;82.10
64987;DHT22;67903;52.108;9.358;2024-01-11T08:49:12;-7.50;81.90
64987;DHT22;67903;52.108;9.358;2024-01-11T08:51:57;-7.50;81.90
64987;DHT22;67903;52.108;9.358;2024-01-11T08:54:43;-7.40;81.40
64987;DHT22;67903;52.108;9.358;2024-01-11T08:57:28;-7.40;80.80
64987;DHT22;67903;52.108;9.358;2024-01-11T09:00:14;-7.40;80.50
64987;DHT22;67903;52.108;9.358;2024-01-11T09:03:04;-7.40;80.40
64987;DHT22;67903;52.108;9.358;2024-01-11T09:05:50;-7.40;80.30
64987;DHT22;67903;52.108;9.358;2024-01-11T09:08:35;-7.30;80.10
64987;DHT22;67903;52.108;9.358;2024-01-11T09:11:21;-7.20;79.60
64987;DHT22;67903;52.108;9.358;2024-01-11T09:14:07;-7.20;79.50
64987;DHT22;67903;52.108;9.358;2024-01-11T09:16:53;-7.10;79.60
64987;DHT22;67903;52.108;9.358;2024-01-11T09:19:38;-7.10;79.50
64987;DHT22;67903;52.108;9.358;2024-01-11T09:22:25;-7.00;79.30
64987;DHT22;67903;52.108;9.358;2024-01-11T09:25:11;-7.00;78.90
64987;DHT22;67903;52.108;9.358;2024-01-11T09:27:57;-6.90;79.00
64987;DHT22;67903;52.108;9.358;2024-01-11T09:30:42;-6.80;79.00
64987;DHT22;67903;52.108;9.358;2024-01-11T09:33:28;-6.80;78.90
64987;DHT22;67903;52.108;9.358;2024-01-11T09:36:14;-6.70;78.50
64987;DHT22;67903;52.108;9.358;2024-01-11T09:38:59;-6.70;78.70
64987;DHT22;67903;52.108;9.358;2024-01-11T09:41:58;-6.70;78.50
64987;DHT22;67903;52.108;9.358;2024-01-11T09:44:44;-6.50;78.60
64987;DHT22;67903;52.108;9.358;2024-01-11T09:47:29;-6.50;78.60
64987;DHT22;67903;52.108;9.358;2024-01-11T09:50:16;-6.50;78.80
64987;DHT22;67903;52.108;9.358;2024-01-11T09:53:04;-6.40;79.10
64987;DHT22;67903;52.108;9.358;2024-01-11T09:55:54;-6.30;79.00
64987;DHT22;67903;52.108;9.358;2024-01-11T09:58:46;-6.30;78.80
64987;DHT22;67903;52.108;9.358;2024-01-11T10:01:34;-6.20;79.10
64987;DHT22;67903;52.108;9.358;2024-01-11T10:04:20;-6.20;79.40
64987;DHT22;67903;52.108;9.358;2024-01-11T10:07:06;-6.20;79.40
64987;DHT22;67903;52.108;9.358;2024-01-11T10:09:52;-6.10;80.00
64987;DHT22;67903;52.108;9.358;2024-01-11T10:12:38;-6.00;79.80
64987;DHT22;67903;52.108;9.358;2024-01-11T10:15:24;-6.00;79.80
64987;DHT22;67903;52.108;9.358;2024-01-11T10:18:10;-6.00;79.60
64987;DHT22;67903;52.108;9.358;2024-01-11T10:20:57;-6.00;79.40
64987;DHT22;67903;52.108;9.358;2024-01-11T10:23:43;-5.90;79.50
64987;DHT22;67903;52.108;9.358;2024-01-11T10:26:30;-5.70;79.10
64987;DHT22;67903;52.108;9.358;2024-01-11T10:29:15;-5.70;79.10
64987;DHT22;67903;52.108;9.358;2024-01-11T10:32:01;-5.70;79.00
64987;DHT22;67903;52.108;9.358;2024-01-11T10:34:46;-5.60;79.00
64987;DHT22;67903;52.108;9.358;2024-01-11T10:37:33;-5.50;78.90
64987;DHT22;67903;52.108;9.358;2024-01-11T10:40:20;-5.40;78.20
64987;DHT22;67903;52.108;9.358;2024-01-11T10:43:09;-5.20;78.10
64987;DHT22;67903;52.108;9.358;2024-01-11T10:46:00;-5.10;77.10
64987;DHT22;67903;52.108;9.358;2024-01-11T10:48:51;-4.90;76.90
64987;DHT22;67903;52.108;9.358;2024-01-11T10:51:41;-4.80;76.30
64987;DHT22;67903;52.108;9.358;2024-01-11T10:54:30;-4.60;75.70
64987;DHT22;67903;52.108;9.358;2024-01-11T10:57:17;-4.60;75.40
64987;DHT22;67903;52.108;9.358;2024-01-11T11:00:03;-4.40;75.00
64987;DHT22;67903;52.108;9.358;2024-01-11T11:02:49;-4.30;74.90
64987;DHT22;67903;52.108;9.358;2024-01-11T11:05:37;-4.20;75.00
64987;DHT22;67903;52.108;9.358;2024-01-11T11:08:24;-4.10;74.60
64987;DHT22;67903;52.108;9.358;2024-01-11T11:11:12;-4.10;74.60
64987;DHT22;67903;52.108;9.358;2024-01-11T11:14:00;-4.10;74.90
64987;DHT22;67903;52.108;9.358;2024-01-11T11:16:46;-4.00;75.20
64987;DHT22;67903;52.108;9.358;2024-01-11T11:19:32;-4.00;75.00
64987;DHT22;67903;52.108;9.358;2024-01-11T11:22:17;-3.80;75.00
64987;DHT22;67903;52.108;9.358;2024-01-11T11:25:08;-3.80;74.60
64987;DHT22;67903;52.108;9.358;2024-01-11T11:27:54;-3.70;74.20
64987;DHT22;67903;52.108;9.358;2024-01-11T11:30:41;-3.60;74.30
64987;DHT22;67903;52.108;9.358;2024-01-11T11:33:27;-3.60;74.10
64987;DHT22;67903;52.108;9.358;2024-01-11T11:36:17;-3.50;74.10
64987;DHT22;67903;52.108;9.358;2024-01-11T11:39:03;-3.50;74.00
64987;DHT22;67903;52.108;9.358;2024-01-11T11:41:48;-3.50;73.80
64987;DHT22;67903;52.108;9.358;2024-01-11T11:44:35;-3.50;74.10
64987;DHT22;67903;52.108;9.358;2024-01-11T11:47:24;-3.40;74.00
64987;DHT22;67903;52.108;9.358;2024-01-11T11:50:11;-3.40;73.90
64987;DHT22;67903;52.108;9.358;2024-01-11T11:52:57;-3.40;73.90
64987;DHT22;67903;52.108;9.358;2024-01-11T11:55:44;-3.20;73.90
64987;DHT22;67903;52.108;9.358;2024-01-11T11:58:31;-3.10;74.00
64987;DHT22;67903;52.108;9.358;2024-01-11T12:01:16;-3.00;73.50
64987;DHT22;67903;52.108;9.358;2024-01-11T12:04:03;-2.80;73.20
64987;DHT22;67903;52.108;9.358;2024-01-11T12:06:48;-2.90;73.20
64987;DHT22;67903;52.108;9.358;2024-01-11T12:09:35;-3.00;73.40
64987;DHT22;67903;52.108;9.358;2024-01-11T12:12:20;-3.00;74.50
64987;DHT22;67903;52.108;9.358;2024-01-11T12:15:08;-3.10;75.50
64987;DHT22;67903;52.108;9.358;2024-01-11T12:17:59;-3.00;75.70
64987;DHT22;67903;52.108;9.358;2024-01-11T12:20:46;-3.10;76.20
64987;DHT22;67903;52.108;9.358;2024-01-11T12:23:32;-3.00;77.20
64987;DHT22;67903;52.108;9.358;2024-01-11T12:26:19;-3.00;77.40
64987;DHT22;67903;52.108;9.358;2024-01-11T12:29:09;-3.00;78.20
64987;DHT22;67903;52.108;9.358;2024-01-11T12:31:59;-3.00;78.20
64987;DHT22;67903;52.108;9.358;2024-01-11T12:34:45;-3.00;78.70
64987;DHT22;67903;52.108;9.358;2024-01-11T12:37:32;-2.90;79.90
64987;DHT22;67903;52.108;9.358;2024-01-11T12:40:17;-3.00;80.70
64987;DHT22;67903;52.108;9.358;2024-01-11T12:43:06;-3.10;81.50
64987;DHT22;67903;52.108;9.358;2024-01-11T12:45:55;-3.10;83.00
64987;DHT22;67903;52.108;9.358;2024-01-11T12:48:41;-3.10;84.00
64987;DHT22;67903;52.108;9.358;2024-01-11T12:51:27;-3.00;84.60
64987;DHT22;67903;52.108;9.358;2024-01-11T12:54:13;-3.10;84.20
64987;DHT22;67903;52.108;9.358;2024-01-11T12:57:04;-3.10;84.70
64987;DHT22;67903;52.108;9.358;2024-01-11T12:59:50;-3.10;85.50
64987;DHT22;67903;52.108;9.358;2024-01-11T13:02:36;-3.20;86.00
64987;DHT22;67903;52.108;9.358;2024-01-11T13:05:21;-3.20;86.00
64987;DHT22;67903;52.108;9.358;2024-01-11T13:08:10;-3.20;86.40
64987;DHT22;67903;52.108;9.358;2024-01-11T13:10:56;-3.20;86.90
64987;DHT22;67903;52.108;9.358;2024-01-11T13:13:42;-3.20;86.90
64987;DHT22;67903;52.108;9.358;2024-01-11T13:16:28;-3.20;86.70
64987;DHT22;67903;52.108;9.358;2024-01-11T13:19:14;-3.10;86.20
64987;DHT22;67903;52.108;9.358;2024-01-11T13:22:11;-3.10;86.40
64987;DHT22;67903;52.108;9.358;2024-01-11T13:24:56;-3.20;86.80
64987;DHT22;67903;52.108;9.358;2024-01-11T13:27:42;-3.20;86.70
64987;DHT22;67903;52.108;9.358;2024-01-11T13:30:27;-3.20;86.90
64987;DHT22;67903;52.108;9.358;2024-01-11T13:33:13;-3.20;87.10
64987;DHT22;67903;52.108;9.358;2024-01-11T13:36:00;-3.20;87.30
64987;DHT22;67903;52.108;9.358;2024-01-11T13:38:46;-3.20;87.70
64987;DHT22;67903;52.108;9.358;2024-01-11T13:41:31;-3.20;88.20
64987;DHT22;67903;52.108;9.358;2024-01-11T13:44:17;-3.30;89.00
64987;DHT22;67903;52.108;9.358;2024-01-11T13:47:03;-3.20;90.30
64987;DHT22;67903;52.108;9.358;2024-01-11T13:49:49;-3.20;89.70
64987;DHT22;67903;52.108;9.358;2024-01-11T13:52:34;-3.20;90.00
64987;DHT22;67903;52.108;9.358;2024-01-11T13:55:20;-3.30;90.30
64987;DHT22;67903;52.108;9.358;2024-01-11T13:58:07;-3.20;90.50
64987;DHT22;67903;52.108;9.358;2024-01-11T14:00:53;-3.20;90.30
64987;DHT22;67903;52.108;9.358;2024-01-11T14:03:42;-3.10;90.50
64987;DHT22;67903;52.108;9.358;2024-01-11T14:06:27;-3.10;90.40
64987;DHT22;67903;52.108;9.358;2024-01-11T14:09:13;-3.10;90.20
64987;DHT22;67903;52.108;9.358;2024-01-11T14:11:58;-3.20;90.80
64987;DHT22;67903;52.108;9.358;2024-01-11T14:14:44;-3.20;91.40
64987;DHT22;67903;52.108;9.358;2024-01-11T14:17:30;-3.20;91.80
64987;DHT22;67903;52.108;9.358;2024-01-11T14:20:15;-3.20;92.20
64987;DHT22;67903;52.108;9.358;2024-01-11T14:23:01;-3.20;92.20
64987;DHT22;67903;52.108;9.358;2024-01-11T14:25:47;-3.20;92.80
64987;DHT22;67903;52.108;9.358;2024-01-11T14:28:34;-3.20;92.90
64987;DHT22;67903;52.108;9.358;2024-01-11T14:31:19;-3.20;93.20
64987;DHT22;67903;52.108;9.358;2024-01-11T14:34:05;-3.20;93.20
64987;DHT22;67903;52.108;9.358;2024-01-11T14:36:51;-3.20;93.10
64987;DHT22;67903;52.108;9.358;2024-01-11T14:39:36;-3.10;93.00
64987;DHT22;67903;52.108;9.358;2024-01-11T14:42:22;-3.10;92.90
64987;DHT22;67903;52.108;9.358;2024-01-11T14:45:08;-3.10;93.00
64987;DHT22;67903;52.108;9.358;2024-01-11T14:47:53;-3.00;92.90
64987;DHT22;67903;52.108;9.358;2024-01-11T14:50:39;-3.00;93.30
64987;DHT22;67903;52.108;9.358;2024-01-11T14:53:25;-3.00;93.10
64987;DHT22;67903;52.108;9.358;2024-01-11T14:56:11;-3.00;93.40
64987;DHT22;67903;52.108;9.358;2024-01-11T14:58:58;-3.10;93.30
64987;DHT22;67903;52.108;9.358;2024-01-11T15:01:43;-3.00;93.30
64987;DHT22;67903;52.108;9.358;2024-01-11T15:04:31;-3.00;93.30
64987;DHT22;67903;52.108;9.358;2024-01-11T15:07:16;-3.00;93.30
64987;DHT22;67903;52.108;9.358;2024-01-11T15:10:01;-3.00;93.60
64987;DHT22;67903;52.108;9.358;2024-01-11T15:12:48;-3.00;94.00
64987;DHT22;67903;52.108;9.358;2024-01-11T15:15:33;-3.00;93.90
64987;DHT22;67903;52.108;9.358;2024-01-11T15:18:20;-3.00;94.30
64987;DHT22;67903;52.108;9.358;2024-01-11T15:21:06;-3.00;94.40
64987;DHT22;67903;52.108;9.358;2024-01-11T15:23:52;-2.90;94.40
64987;DHT22;67903;52.108;9.358;2024-01-11T15:26:38;-3.00;94.40
64987;DHT22;67903;52.108;9.358;2024-01-11T15:29:24;-3.00;94.90
64987;DHT22;67903;52.108;9.358;2024-01-11T15:32:10;-3.00;95.00
64987;DHT22;67903;52.108;9.358;2024-01-11T15:34:56;-3.00;95.20
64987;DHT22;67903;52.108;9.358;2024-01-11T15:37:41;-3.00;95.20
64987;DHT22;67903;52.108;9.358;2024-01-11T15:40:27;-2.90;94.90
64987;DHT22;67903;52.108;9.358;2024-01-11T15:43:12;-2.90;95.10
64987;DHT22;67903;52.108;9.358;2024-01-11T15:45:58;-2.90;95.10
64987;DHT22;67903;52.108;9.358;2024-01-11T15:48:44;-2.90;95.10
64987;DHT22;67903;52.108;9.358;2024-01-11T15:51:29;-2.90;95.30
64987;DHT22;67903;52.108;9.358;2024-01-11T15:54:15;-2.90;95.50
64987;DHT22;67903;52.108;9.358;2024-01-11T15:57:00;-2.90;95.30
64987;DHT22;67903;52.108;9.358;2024-01-11T15:59:46;-2.90;95.30
64987;DHT22;67903;52.108;9.358;2024-01-11T16:02:31;-2.80;95.60
64987;DHT22;67903;52.108;9.358;2024-01-11T16:05:17;-2.80;95.70
64987;DHT22;67903;52.108;9.358;2024-01-11T16:08:03;-2.90;95.60
64987;DHT22;67903;52.108;9.358;2024-01-11T16:10:48;-2.80;95.50
64987;DHT22;67903;52.108;9.358;2024-01-11T16:13:34;-2.70;95.50
64987;DHT22;67903;52.108;9.358;2024-01-11T16:16:19;-2.70;95.50
64987;DHT22;67903;52.108;9.358;2024-01-11T16:19:05;-2.80;95.60
64987;DHT22;67903;52.108;9.358;2024-01-11T16:21:51;-2.70;96.00
64987;DHT22;67903;52.108;9.358;2024-01-11T16:24:36;-2.70;95.60
64987;DHT22;67903;52.108;9.358;2024-01-11T16:27:21;-2.70;95.80
64987;DHT22;67903;52.108;9.358;2024-01-11T16:30:07;-2.70;95.90
64987;DHT22;67903;52.108;9.358;2024-01-11T16:32:53;-2.70;96.10
64987;DHT22;67903;52.108;9.358;2024-01-11T16:35:39;-2.70;95.80
64987;DHT22;67903;52.108;9.358;2024-01-11T16:38:40;-2.60;96.00
64987;DHT22;67903;52.108;9.358;2024-01-11T16:41:25;-2.60;96.20
64987;DHT22;67903;52.108;9.358;2024-01-11T16:44:10;-2.60;96.20
64987;DHT22;67903;52.108;9.358;2024-01-11T16:46:56;-2.60;95.90
64987;DHT22;67903;52.108;9.358;2024-01-11T16:49:42;-2.60;95.90
64987;DHT22;67903;52.108;9.358;2024-01-11T16:52:28;-2.60;95.90
64987;DHT22;67903;52.108;9.358;2024-01-11T16:55:14;-2.60;96.10
64987;DHT22;67903;52.108;9.358;2024-01-11T16:58:00;-2.50;96.20
64987;DHT22;67903;52.108;9.358;2024-01-11T17:00:47;-2.60;96.10
64987;DHT22;67903;52.108;9.358;2024-01-11T17:03:32;-2.50;95.90
64987;DHT22;67903;52.108;9.358;2024-01-11T17:06:18;-2.50;96.20
64987;DHT22;67903;52.108;9.358;2024-01-11T17:09:05;-2.50;96.20
64987;DHT22;67903;52.108;9.358;2024-01-11T17:11:52;-2.50;96.30
64987;DHT22;67903;52.108;9.358;2024-01-11T17:14:37;-2.50;96.10
64987;DHT22;67903;52.108;9.358;2024-01-11T17:17:23;-2.50;96.00
64987;DHT22;67903;52.108;9.358;2024-01-11T17:20:10;-2.50;96.20
64987;DHT22;67903;52.108;9.358;2024-01-11T17:22:58;-2.50;96.30
64987;DHT22;67903;52.108;9.358;2024-01-11T17:25:44;-2.50;96.50
64987;DHT22;67903;52.108;9.358;2024-01-11T17:28:29;-2.50;96.30